sensor_id;sensor_type;location;lat;lon;timestamp;pressure;altitude;pressure_sealevel;temperature;humidity
6096;BME280;25081;42.698;23.298;2023-03-07T00:01:45;94496.24;;;7.18;64.54
6096;BME280;25081;42.698;23.298;2023-03-07T00:03:55;94485.78;;;7.48;63.51
6096;BME280;25081;42.698;23.298;2023-03-07T00:06:08;94479.70;;;7.66;62.64
6096;BME280;25081;42.698;23.298;2023-03-07T00:08:18;94486.36;;;8.02;61.12
6096;BME280;25081;42.698;23.298;2023-03-07T00:10:28;94465.39;;;8.49;59.21
6096;BME280;25081;42.698;23.298;2023-03-07T00:12:38;94477.80;;;8.67;58.53
6096;BME280;25081;42.698;23.298;2023-03-07T00:14:49;94475.05;;;8.95;57.55
6096;BME280;25081;42.698;23.298;2023-03-07T00:16:59;94468.60;;;9.02;57.21
6096;BME280;25081;42.698;23.298;2023-03-07T00:19:10;94471.03;;;9.04;57.14
6096;BME280;25081;42.698;23.298;2023-03-07T00:21:21;94472.37;;;8.83;57.91
6096;BME280;25081;42.698;23.298;2023-03-07T00:23:31;94461.25;;;8.74;58.28
6096;BME280;25081;42.698;23.298;2023-03-07T00:25:42;94461.02;;;8.76;58.19
6096;BME280;25081;42.698;23.298;2023-03-07T00:27:52;94457.66;;;8.69;58.55
6096;BME280;25081;42.698;23.298;2023-03-07T00:30:03;94460.75;;;8.66;58.83
6096;BME280;25081;42.698;23.298;2023-03-07T00:32:14;94457.00;;;8.64;59.45
6096;BME280;25081;42.698;23.298;2023-03-07T00:34:24;94454.25;;;8.50;59.77
6096;BME280;25081;42.698;23.298;2023-03-07T00:36:35;94452.70;;;8.33;60.31
6096;BME280;25081;42.698;23.298;2023-03-07T00:38:45;94453.36;;;8.19;60.80
6096;BME280;25081;42.698;23.298;2023-03-07T00:41:00;94451.10;;;8.14;61.16
6096;BME280;25081;42.698;23.298;2023-03-07T00:43:10;94459.30;;;8.12;61.41
6096;BME280;25081;42.698;23.298;2023-03-07T00:45:20;94450.88;;;8.06;61.59
6096;BME280;25081;42.698;23.298;2023-03-07T00:47:31;94457.00;;;7.88;62.26
6096;BME280;25081;42.698;23.298;2023-03-07T00:49:41;94460.11;;;7.76;62.74
6096;BME280;25081;42.698;23.298;2023-03-07T00:51:52;94460.45;;;7.61;62.85
6096;BME280;25081;42.698;23.298;2023-03-07T00:54:02;94455.14;;;7.61;63.08
6096;BME280;25081;42.698;23.298;2023-03-07T00:56:14;94449.83;;;7.52;63.54
6096;BME280;25081;42.698;23.298;2023-03-07T00:58:24;94443.27;;;7.36;64.17
6096;BME280;25081;42.698;23.298;2023-03-07T01:00:34;94453.28;;;7.34;64.56
6096;BME280;25081;42.698;23.298;2023-03-07T01:02:45;94451.86;;;7.32;64.68
6096;BME280;25081;42.698;23.298;2023-03-07T01:04:55;94450.00;;;7.23;64.91
6096;BME280;25081;42.698;23.298;2023-03-07T01:07:06;94459.84;;;7.07;65.16
6096;BME280;25081;42.698;23.298;2023-03-07T01:09:16;94454.07;;;7.01;65.41
6096;BME280;25081;42.698;23.298;2023-03-07T01:11:27;94452.81;;;7.03;65.53
6096;BME280;25081;42.698;23.298;2023-03-07T01:13:37;94447.18;;;7.09;65.42
6096;BME280;25081;42.698;23.298;2023-03-07T01:15:48;94440.21;;;7.14;65.26
6096;BME280;25081;42.698;23.298;2023-03-07T01:17:59;94441.02;;;6.90;66.07
6096;BME280;25081;42.698;23.298;2023-03-07T01:20:11;94437.59;;;6.83;66.44
6096;BME280;25081;42.698;23.298;2023-03-07T01:22:22;94428.25;;;6.80;66.53
6096;BME280;25081;42.698;23.298;2023-03-07T01:24:32;94422.47;;;6.90;66.14
6096;BME280;25081;42.698;23.298;2023-03-07T01:26:43;94407.06;;;7.05;65.69
6096;BME280;25081;42.698;23.298;2023-03-07T01:28:53;94405.87;;;7.10;65.29
6096;BME280;25081;42.698;23.298;2023-03-07T01:31:04;94416.03;;;7.13;65.16
6096;BME280;25081;42.698;23.298;2023-03-07T01:33:14;94420.42;;;7.26;65.23
6096;BME280;25081;42.698;23.298;2023-03-07T01:35:25;94413.14;;;7.40;64.95
6096;BME280;25081;42.698;23.298;2023-03-07T01:37:35;94412.84;;;7.39;64.69
6096;BME280;25081;42.698;23.298;2023-03-07T01:39:46;94405.06;;;7.44;64.57
6096;BME280;25081;42.698;23.298;2023-03-07T01:41:56;94404.83;;;7.45;63.88
6096;BME280;25081;42.698;23.298;2023-03-07T01:44:11;94410.05;;;7.52;64.10
6096;BME280;25081;42.698;23.298;2023-03-07T01:48:51;94406.81;;;7.59;63.70
6096;BME280;25081;42.698;23.298;2023-03-07T01:51:01;94409.84;;;7.44;64.00
6096;BME280;25081;42.698;23.298;2023-03-07T01:53:11;94418.83;;;7.43;64.02
6096;BME280;25081;42.698;23.298;2023-03-07T01:55:23;94415.79;;;7.40;64.07
6096;BME280;25081;42.698;23.298;2023-03-07T01:57:33;94415.64;;;7.26;64.39
6096;BME280;25081;42.698;23.298;2023-03-07T01:59:44;94401.25;;;7.06;65.05
6096;BME280;25081;42.698;23.298;2023-03-07T02:01:54;94406.08;;;7.00;65.51
6096;BME280;25081;42.698;23.298;2023-03-07T02:04:06;94400.19;;;6.98;65.87
6096;BME280;25081;42.698;23.298;2023-03-07T02:06:16;94419.80;;;7.06;65.65
6096;BME280;25081;42.698;23.298;2023-03-07T02:08:27;94417.51;;;7.09;65.71
6096;BME280;25081;42.698;23.298;2023-03-07T02:10:37;94406.59;;;6.99;66.10
6096;BME280;25081;42.698;23.298;2023-03-07T02:12:48;94409.98;;;6.97;66.45
6096;BME280;25081;42.698;23.298;2023-03-07T02:14:58;94419.28;;;7.06;66.29
6096;BME280;25081;42.698;23.298;2023-03-07T02:17:09;94423.33;;;7.09;66.14
6096;BME280;25081;42.698;23.298;2023-03-07T02:19:33;94411.45;;;7.02;66.23
6096;BME280;25081;42.698;23.298;2023-03-07T02:21:42;94411.35;;;6.91;66.26
6096;BME280;25081;42.698;23.298;2023-03-07T02:23:55;94399.14;;;6.89;65.60
6096;BME280;25081;42.698;23.298;2023-03-07T02:26:05;94399.65;;;6.89;65.73
6096;BME280;25081;42.698;23.298;2023-03-07T02:28:15;94404.95;;;6.89;65.52
6096;BME280;25081;42.698;23.298;2023-03-07T02:30:25;94406.30;;;6.98;64.61
6096;BME280;25081;42.698;23.298;2023-03-07T02:32:35;94405.36;;;7.11;64.93
6096;BME280;25081;42.698;23.298;2023-03-07T02:34:46;94414.03;;;7.00;65.25
6096;BME280;25081;42.698;23.298;2023-03-07T02:36:58;94409.29;;;6.93;65.48
6096;BME280;25081;42.698;23.298;2023-03-07T02:39:08;94405.91;;;6.95;65.65
6096;BME280;25081;42.698;23.298;2023-03-07T02:41:18;94412.41;;;6.99;65.28
6096;BME280;25081;42.698;23.298;2023-03-07T02:43:29;94411.11;;;7.08;65.04
6096;BME280;25081;42.698;23.298;2023-03-07T02:45:39;94412.30;;;7.21;64.90
6096;BME280;25081;42.698;23.298;2023-03-07T02:47:50;94409.22;;;7.15;65.05
6096;BME280;25081;42.698;23.298;2023-03-07T02:50:00;94409.41;;;7.13;65.07
6096;BME280;25081;42.698;23.298;2023-03-07T02:52:11;94408.41;;;7.14;65.11
6096;BME280;25081;42.698;23.298;2023-03-07T02:54:21;94419.58;;;7.07;65.34
6096;BME280;25081;42.698;23.298;2023-03-07T02:56:32;94422.47;;;7.15;65.50
6096;BME280;25081;42.698;23.298;2023-03-07T02:58:42;94412.58;;;7.13;65.50
6096;BME280;25081;42.698;23.298;2023-03-07T03:00:53;94415.20;;;7.04;65.91
6096;BME280;25081;42.698;23.298;2023-03-07T03:03:03;94411.61;;;6.82;66.56
6096;BME280;25081;42.698;23.298;2023-03-07T03:05:14;94413.60;;;6.78;66.77
6096;BME280;25081;42.698;23.298;2023-03-07T03:07:25;94414.34;;;6.85;66.43
6096;BME280;25081;42.698;23.298;2023-03-07T03:09:35;94418.78;;;6.91;66.38
6096;BME280;25081;42.698;23.298;2023-03-07T03:11:46;94417.13;;;6.97;66.54
6096;BME280;25081;42.698;23.298;2023-03-07T03:13:56;94419.80;;;7.06;66.28
6096;BME280;25081;42.698;23.298;2023-03-07T03:16:07;94420.01;;;7.13;66.12
6096;BME280;25081;42.698;23.298;2023-03-07T03:18:18;94414.25;;;6.98;66.34
6096;BME280;25081;42.698;23.298;2023-03-07T03:20:28;94409.39;;;6.95;66.11
6096;BME280;25081;42.698;23.298;2023-03-07T03:22:39;94406.34;;;6.92;66.36
6096;BME280;25081;42.698;23.298;2023-03-07T03:24:50;94406.34;;;6.92;66.25
6096;BME280;25081;42.698;23.298;2023-03-07T03:27:00;94405.56;;;7.00;66.10
6096;BME280;25081;42.698;23.298;2023-03-07T03:29:11;94405.36;;;7.11;65.82
6096;BME280;25081;42.698;23.298;2023-03-07T03:31:21;94402.45;;;7.28;65.50
6096;BME280;25081;42.698;23.298;2023-03-07T03:33:32;94401.59;;;7.34;65.00
6096;BME280;25081;42.698;23.298;2023-03-07T03:35:42;94420.34;;;7.33;65.15
6096;BME280;25081;42.698;23.298;2023-03-07T03:37:53;94414.10;;;7.36;65.31
6096;BME280;25081;42.698;23.298;2023-03-07T03:40:05;94415.50;;;7.39;65.27
6096;BME280;25081;42.698;23.298;2023-03-07T03:42:15;94420.87;;;7.41;65.35
6096;BME280;25081;42.698;23.298;2023-03-07T03:44:26;94417.35;;;7.48;65.20
6096;BME280;25081;42.698;23.298;2023-03-07T03:46:36;94413.30;;;7.45;64.96
6096;BME280;25081;42.698;23.298;2023-03-07T03:48:51;94417.28;;;7.45;64.95
6096;BME280;25081;42.698;23.298;2023-03-07T03:51:03;94417.86;;;7.38;65.09
6096;BME280;25081;42.698;23.298;2023-03-07T03:53:13;94420.34;;;7.33;65.26
6096;BME280;25081;42.698;23.298;2023-03-07T03:55:24;94428.16;;;7.28;65.60
6096;BME280;25081;42.698;23.298;2023-03-07T03:57:34;94436.13;;;7.12;66.43
6096;BME280;25081;42.698;23.298;2023-03-07T03:59:45;94420.16;;;7.09;66.28
6096;BME280;25081;42.698;23.298;2023-03-07T04:01:56;94418.09;;;7.11;66.36
6096;BME280;25081;42.698;23.298;2023-03-07T04:04:06;94418.45;;;6.97;66.76
6096;BME280;25081;42.698;23.298;2023-03-07T04:06:18;94408.92;;;6.89;66.67
6096;BME280;25081;42.698;23.298;2023-03-07T04:08:27;94421.69;;;6.99;66.79
6096;BME280;25081;42.698;23.298;2023-03-07T04:10:38;94424.60;;;7.15;66.36
6096;BME280;25081;42.698;23.298;2023-03-07T04:12:48;94411.87;;;7.15;66.27
6096;BME280;25081;42.698;23.298;2023-03-07T04:14:59;94410.56;;;7.24;65.90
6096;BME280;25081;42.698;23.298;2023-03-07T04:17:09;94397.20;;;7.22;65.40
6096;BME280;25081;42.698;23.298;2023-03-07T04:19:20;94421.95;;;7.15;65.96
6096;BME280;25081;42.698;23.298;2023-03-07T04:21:30;94426.64;;;7.13;66.04
6096;BME280;25081;42.698;23.298;2023-03-07T04:23:41;94422.61;;;7.20;65.89
6096;BME280;25081;42.698;23.298;2023-03-07T04:25:52;94421.65;;;7.24;65.61
6096;BME280;25081;42.698;23.298;2023-03-07T04:28:02;94427.20;;;6.97;66.17
6096;BME280;25081;42.698;23.298;2023-03-07T04:30:13;94424.70;;;7.02;66.05
6096;BME280;25081;42.698;23.298;2023-03-07T04:32:24;94423.25;;;7.06;65.98
6096;BME280;25081;42.698;23.298;2023-03-07T04:34:34;94439.59;;;7.12;65.80
6096;BME280;25081;42.698;23.298;2023-03-07T04:36:45;94448.53;;;7.18;65.80
6096;BME280;25081;42.698;23.298;2023-03-07T04:38:55;94441.53;;;7.24;65.39
6096;BME280;25081;42.698;23.298;2023-03-07T04:41:06;94431.91;;;7.29;65.37
6096;BME280;25081;42.698;23.298;2023-03-07T04:43:17;94441.23;;;7.23;64.91
6096;BME280;25081;42.698;23.298;2023-03-07T04:45:28;94445.14;;;7.20;65.47
6096;BME280;25081;42.698;23.298;2023-03-07T04:47:38;94448.83;;;7.19;65.59
6096;BME280;25081;42.698;23.298;2023-03-07T04:49:49;94443.47;;;7.26;65.35
6096;BME280;25081;42.698;23.298;2023-03-07T04:51:59;94431.55;;;7.26;65.26
6096;BME280;25081;42.698;23.298;2023-03-07T04:54:09;94437.48;;;7.21;65.46
6096;BME280;25081;42.698;23.298;2023-03-07T04:56:20;94447.20;;;7.18;65.67
6096;BME280;25081;42.698;23.298;2023-03-07T04:58:31;94451.86;;;7.32;65.61
6096;BME280;25081;42.698;23.298;2023-03-07T05:00:41;94441.03;;;7.33;65.40
6096;BME280;25081;42.698;23.298;2023-03-07T05:02:52;94437.74;;;7.38;65.33
6096;BME280;25081;42.698;23.298;2023-03-07T05:05:02;94438.03;;;7.39;65.23
6096;BME280;25081;42.698;23.298;2023-03-07T05:07:13;94448.70;;;7.32;65.22
6096;BME280;25081;42.698;23.298;2023-03-07T05:09:23;94444.81;;;7.35;65.15
6096;BME280;25081;42.698;23.298;2023-03-07T05:11:34;94447.88;;;7.32;65.36
6096;BME280;25081;42.698;23.298;2023-03-07T05:13:44;94386.81;;;7.11;65.14
6096;BME280;25081;42.698;23.298;2023-03-07T05:15:56;94445.56;;;7.51;64.84
6096;BME280;25081;42.698;23.298;2023-03-07T05:18:06;94445.42;;;7.46;65.09
6096;BME280;25081;42.698;23.298;2023-03-07T05:20:17;94453.88;;;7.11;66.06
6096;BME280;25081;42.698;23.298;2023-03-07T05:22:28;94441.14;;;7.11;66.43
6096;BME280;25081;42.698;23.298;2023-03-07T05:24:38;94440.53;;;7.25;65.96
6096;BME280;25081;42.698;23.298;2023-03-07T05:26:49;94451.64;;;7.33;65.73
6096;BME280;25081;42.698;23.298;2023-03-07T05:28:59;94452.97;;;7.24;66.16
6096;BME280;25081;42.698;23.298;2023-03-07T05:31:10;94444.11;;;7.21;66.42
6096;BME280;25081;42.698;23.298;2023-03-07T05:33:20;94450.48;;;7.13;66.68
6096;BME280;25081;42.698;23.298;2023-03-07T05:35:31;94451.65;;;7.24;66.71
6096;BME280;25081;42.698;23.298;2023-03-07T05:37:41;94462.93;;;7.13;67.13
6096;BME280;25081;42.698;23.298;2023-03-07T05:39:51;94449.09;;;7.11;67.45
6096;BME280;25081;42.698;23.298;2023-03-07T05:42:02;94461.28;;;7.03;67.81
6096;BME280;25081;42.698;23.298;2023-03-07T05:44:13;94460.87;;;6.90;68.30
6096;BME280;25081;42.698;23.298;2023-03-07T05:46:23;94455.91;;;7.00;67.99
6096;BME280;25081;42.698;23.298;2023-03-07T05:48:34;94467.94;;;7.12;67.89
6096;BME280;25081;42.698;23.298;2023-03-07T05:50:44;94476.95;;;7.20;67.99
6096;BME280;25081;42.698;23.298;2023-03-07T05:52:55;94473.54;;;7.38;67.27
6096;BME280;25081;42.698;23.298;2023-03-07T05:55:06;94464.41;;;7.52;66.49
6096;BME280;25081;42.698;23.298;2023-03-07T05:57:17;94476.93;;;7.36;66.92
6096;BME280;25081;42.698;23.298;2023-03-07T05:59:28;94475.18;;;7.23;67.49
6096;BME280;25081;42.698;23.298;2023-03-07T06:01:38;94472.40;;;7.02;68.20
6096;BME280;25081;42.698;23.298;2023-03-07T06:03:49;94475.59;;;7.11;68.24
6096;BME280;25081;42.698;23.298;2023-03-07T06:05:59;94473.39;;;7.08;68.39
6096;BME280;25081;42.698;23.298;2023-03-07T06:08:09;94475.89;;;7.37;67.71
6096;BME280;25081;42.698;23.298;2023-03-07T06:10:20;94482.20;;;7.27;67.82
6096;BME280;25081;42.698;23.298;2023-03-07T06:12:30;94481.25;;;7.30;67.63
6096;BME280;25081;42.698;23.298;2023-03-07T06:14:41;94486.05;;;7.40;67.59
6096;BME280;25081;42.698;23.298;2023-03-07T06:16:52;94479.72;;;7.41;67.56
6096;BME280;25081;42.698;23.298;2023-03-07T06:19:02;94476.48;;;7.39;67.68
6096;BME280;25081;42.698;23.298;2023-03-07T06:21:14;94471.95;;;7.55;67.58
6096;BME280;25081;42.698;23.298;2023-03-07T06:23:23;94474.25;;;7.79;66.57
6096;BME280;25081;42.698;23.298;2023-03-07T06:25:34;94476.68;;;7.90;66.19
6096;BME280;25081;42.698;23.298;2023-03-07T06:27:44;94478.81;;;7.90;65.95
6096;BME280;25081;42.698;23.298;2023-03-07T06:29:55;94459.14;;;7.98;65.93
6096;BME280;25081;42.698;23.298;2023-03-07T06:32:06;94485.23;;;8.10;65.29
6096;BME280;25081;42.698;23.298;2023-03-07T06:34:17;94480.36;;;7.70;66.86
6096;BME280;25081;42.698;23.298;2023-03-07T06:36:27;94476.38;;;8.16;65.83
6096;BME280;25081;42.698;23.298;2023-03-07T06:38:38;94485.38;;;7.88;66.12
6096;BME280;25081;42.698;23.298;2023-03-07T06:40:56;94484.80;;;7.86;66.29
6096;BME280;25081;42.698;23.298;2023-03-07T06:43:07;94487.80;;;7.80;66.53
6096;BME280;25081;42.698;23.298;2023-03-07T06:45:17;94484.88;;;7.97;66.40
6096;BME280;25081;42.698;23.298;2023-03-07T06:47:28;94506.69;;;8.18;65.69
6096;BME280;25081;42.698;23.298;2023-03-07T06:49:38;94505.07;;;8.17;65.64
6096;BME280;25081;42.698;23.298;2023-03-07T06:51:49;94498.43;;;8.26;65.21
6096;BME280;25081;42.698;23.298;2023-03-07T06:53:59;94492.59;;;8.54;64.61
6096;BME280;25081;42.698;23.298;2023-03-07T06:56:10;94505.28;;;8.91;63.59
6096;BME280;25081;42.698;23.298;2023-03-07T06:58:20;94510.42;;;8.95;63.34
6096;BME280;25081;42.698;23.298;2023-03-07T07:00:31;94503.02;;;8.97;63.17
6096;BME280;25081;42.698;23.298;2023-03-07T07:02:41;94492.19;;;9.31;62.12
6096;BME280;25081;42.698;23.298;2023-03-07T07:04:52;94500.17;;;9.55;60.54
6096;BME280;25081;42.698;23.298;2023-03-07T07:07:02;94493.28;;;9.33;60.95
6096;BME280;25081;42.698;23.298;2023-03-07T07:09:13;94487.65;;;9.76;60.48
6096;BME280;25081;42.698;23.298;2023-03-07T07:11:24;94491.11;;;10.38;58.65
6096;BME280;25081;42.698;23.298;2023-03-07T07:13:34;94484.75;;;9.78;59.63
6096;BME280;25081;42.698;23.298;2023-03-07T07:15:44;94484.23;;;9.78;60.13
6096;BME280;25081;42.698;23.298;2023-03-07T07:17:55;94487.06;;;10.35;58.32
6096;BME280;25081;42.698;23.298;2023-03-07T07:20:09;94474.23;;;10.75;56.98
6096;BME280;25081;42.698;23.298;2023-03-07T07:22:20;94485.69;;;11.04;55.72
6096;BME280;25081;42.698;23.298;2023-03-07T07:24:30;94349.56;;;9.65;56.75
6096;BME280;25081;42.698;23.298;2023-03-07T07:26:40;94479.69;;;10.97;56.36
6096;BME280;25081;42.698;23.298;2023-03-07T07:28:51;94480.74;;;10.96;55.51
6096;BME280;25081;42.698;23.298;2023-03-07T07:31:01;94492.15;;;9.87;58.60
6096;BME280;25081;42.698;23.298;2023-03-07T07:33:12;94499.60;;;9.53;59.50
6096;BME280;25081;42.698;23.298;2023-03-07T07:35:23;94497.95;;;10.10;58.57
6096;BME280;25081;42.698;23.298;2023-03-07T07:37:33;94497.76;;;10.64;56.86
6096;BME280;25081;42.698;23.298;2023-03-07T07:39:44;94496.59;;;10.59;56.89
6096;BME280;25081;42.698;23.298;2023-03-07T07:41:54;94495.78;;;10.45;57.76
6096;BME280;25081;42.698;23.298;2023-03-07T07:44:05;94504.71;;;10.39;58.14
6096;BME280;25081;42.698;23.298;2023-03-07T07:46:16;94504.31;;;10.87;56.87
6096;BME280;25081;42.698;23.298;2023-03-07T07:48:26;94506.82;;;11.22;55.70
6096;BME280;25081;42.698;23.298;2023-03-07T07:50:36;94503.47;;;10.84;56.77
6096;BME280;25081;42.698;23.298;2023-03-07T07:52:47;94509.79;;;10.26;57.72
6096;BME280;25081;42.698;23.298;2023-03-07T07:54:57;94505.55;;;10.53;57.75
6096;BME280;25081;42.698;23.298;2023-03-07T07:57:08;94497.29;;;10.81;56.73
6096;BME280;25081;42.698;23.298;2023-03-07T07:59:18;94496.64;;;11.05;56.24
6096;BME280;25081;42.698;23.298;2023-03-07T08:01:29;94504.57;;;10.71;57.21
6096;BME280;25081;42.698;23.298;2023-03-07T08:03:39;94503.63;;;10.51;56.92
6096;BME280;25081;42.698;23.298;2023-03-07T08:05:50;94500.97;;;10.80;56.42
6096;BME280;25081;42.698;23.298;2023-03-07T08:08:00;94510.31;;;10.80;55.98
6096;BME280;25081;42.698;23.298;2023-03-07T08:10:13;94507.73;;;10.99;56.22
6096;BME280;25081;42.698;23.298;2023-03-07T08:12:23;94506.82;;;11.22;54.76
6096;BME280;25081;42.698;23.298;2023-03-07T08:14:35;94507.61;;;11.70;53.37
6096;BME280;25081;42.698;23.298;2023-03-07T08:16:45;94511.83;;;11.83;52.76
6096;BME280;25081;42.698;23.298;2023-03-07T08:18:56;94506.63;;;13.00;49.84
6096;BME280;25081;42.698;23.298;2023-03-07T08:21:06;94344.47;;;12.99;47.57
6096;BME280;25081;42.698;23.298;2023-03-07T08:23:17;94498.97;;;16.19;43.00
6096;BME280;25081;42.698;23.298;2023-03-07T08:25:28;94489.73;;;19.21;35.16
6096;BME280;25081;42.698;23.298;2023-03-07T08:27:38;94489.91;;;16.85;39.90
6096;BME280;25081;42.698;23.298;2023-03-07T08:29:49;94493.31;;;15.29;42.75
6096;BME280;25081;42.698;23.298;2023-03-07T08:31:59;94497.84;;;15.06;43.43
6096;BME280;25081;42.698;23.298;2023-03-07T08:34:10;94497.84;;;15.06;43.43
6096;BME280;25081;42.698;23.298;2023-03-07T08:36:20;94496.66;;;14.74;45.06
6096;BME280;25081;42.698;23.298;2023-03-07T08:38:31;94496.66;;;14.74;45.06
6096;BME280;25081;42.698;23.298;2023-03-07T08:40:42;94500.95;;;14.75;44.33
6096;BME280;25081;42.698;23.298;2023-03-07T08:42:52;94494.81;;;14.79;44.66
6096;BME280;25081;42.698;23.298;2023-03-07T08:45:04;94495.73;;;14.00;44.21
6096;BME280;25081;42.698;23.298;2023-03-07T08:47:15;94492.33;;;13.73;45.56
6096;BME280;25081;42.698;23.298;2023-03-07T08:49:25;94500.16;;;14.22;44.27
6096;BME280;25081;42.698;23.298;2023-03-07T08:51:36;94488.27;;;15.76;41.59
6096;BME280;25081;42.698;23.298;2023-03-07T08:53:46;94485.55;;;16.99;37.47
6096;BME280;25081;42.698;23.298;2023-03-07T08:55:57;94490.37;;;15.43;40.15
6096;BME280;25081;42.698;23.298;2023-03-07T08:58:07;94483.88;;;15.14;40.70
6096;BME280;25081;42.698;23.298;2023-03-07T09:00:19;94489.38;;;14.64;42.28
6096;BME280;25081;42.698;23.298;2023-03-07T09:02:29;94474.51;;;16.96;38.24
6096;BME280;25081;42.698;23.298;2023-03-07T09:04:40;94472.75;;;20.67;32.20
6096;BME280;25081;42.698;23.298;2023-03-07T09:06:51;94472.75;;;20.67;32.20
6096;BME280;25081;42.698;23.298;2023-03-07T09:09:01;94471.59;;;22.38;29.49
6096;BME280;25081;42.698;23.298;2023-03-07T09:11:12;94467.87;;;23.41;28.55
6096;BME280;25081;42.698;23.298;2023-03-07T09:13:22;94455.66;;;24.66;26.57
6096;BME280;25081;42.698;23.298;2023-03-07T09:15:32;94459.21;;;24.96;25.26
6096;BME280;25081;42.698;23.298;2023-03-07T09:17:43;94457.61;;;24.42;25.79
6096;BME280;25081;42.698;23.298;2023-03-07T09:19:53;94459.08;;;24.54;25.36
6096;BME280;25081;42.698;23.298;2023-03-07T09:22:04;94462.04;;;24.55;25.14
6096;BME280;25081;42.698;23.298;2023-03-07T09:24:15;94458.84;;;21.71;27.40
6096;BME280;25081;42.698;23.298;2023-03-07T09:26:25;94462.50;;;22.22;27.82
6096;BME280;25081;42.698;23.298;2023-03-07T09:28:36;94456.83;;;22.21;28.24
6096;BME280;25081;42.698;23.298;2023-03-07T09:30:46;94450.06;;;23.73;26.09
6096;BME280;25081;42.698;23.298;2023-03-07T09:32:57;94443.92;;;24.74;24.56
6096;BME280;25081;42.698;23.298;2023-03-07T09:35:08;94435.97;;;25.49;24.19
6096;BME280;25081;42.698;23.298;2023-03-07T09:37:19;94445.41;;;25.31;23.82
6096;BME280;25081;42.698;23.298;2023-03-07T09:39:31;94434.94;;;25.89;23.24
6096;BME280;25081;42.698;23.298;2023-03-07T09:42:00;94438.20;;;25.26;24.00
6096;BME280;25081;42.698;23.298;2023-03-07T09:44:13;94432.85;;;25.80;23.30
6096;BME280;25081;42.698;23.298;2023-03-07T09:46:25;94422.95;;;25.67;22.82
6096;BME280;25081;42.698;23.298;2023-03-07T09:48:54;94425.08;;;24.75;23.39
6096;BME280;25081;42.698;23.298;2023-03-07T09:51:07;94413.98;;;25.25;23.80
6096;BME280;25081;42.698;23.298;2023-03-07T09:53:20;94423.81;;;24.49;23.52
6096;BME280;25081;42.698;23.298;2023-03-07T09:55:29;94420.06;;;23.66;24.37
6096;BME280;25081;42.698;23.298;2023-03-07T09:57:44;94413.66;;;22.91;25.30
6096;BME280;25081;42.698;23.298;2023-03-07T09:59:52;94414.02;;;21.85;27.01
6096;BME280;25081;42.698;23.298;2023-03-07T10:02:04;94414.92;;;21.10;28.08
6096;BME280;25081;42.698;23.298;2023-03-07T10:04:16;94414.45;;;19.82;29.99
6096;BME280;25081;42.698;23.298;2023-03-07T10:06:27;94403.86;;;21.57;27.91
6096;BME280;25081;42.698;23.298;2023-03-07T10:08:36;94408.45;;;21.09;27.48
6096;BME280;25081;42.698;23.298;2023-03-07T10:10:51;94403.26;;;19.02;31.39
6096;BME280;25081;42.698;23.298;2023-03-07T10:13:06;94403.18;;;19.61;29.60
6096;BME280;25081;42.698;23.298;2023-03-07T10:20:27;94396.89;;;21.64;27.08
6096;BME280;25081;42.698;23.298;2023-03-07T10:22:36;94401.43;;;17.81;31.72
6096;BME280;25081;42.698;23.298;2023-03-07T10:24:58;94397.09;;;17.51;32.94
6096;BME280;25081;42.698;23.298;2023-03-07T10:27:09;94388.56;;;19.43;30.25
6096;BME280;25081;42.698;23.298;2023-03-07T10:29:20;94383.39;;;17.23;33.09
6096;BME280;25081;42.698;23.298;2023-03-07T10:31:29;94382.57;;;16.01;34.25
6096;BME280;25081;42.698;23.298;2023-03-07T10:33:41;94379.72;;;17.93;31.39
6096;BME280;25081;42.698;23.298;2023-03-07T10:35:51;94378.22;;;16.77;33.06
6096;BME280;25081;42.698;23.298;2023-03-07T10:38:02;94375.30;;;16.07;34.08
6096;BME280;25081;42.698;23.298;2023-03-07T10:40:20;94375.30;;;16.07;34.08
6096;BME280;25081;42.698;23.298;2023-03-07T10:42:32;94366.53;;;19.01;29.76
6096;BME280;25081;42.698;23.298;2023-03-07T10:44:41;94366.53;;;19.01;29.76
6096;BME280;25081;42.698;23.298;2023-03-07T10:46:53;94353.04;;;19.96;28.28
6096;BME280;25081;42.698;23.298;2023-03-07T10:49:07;94349.12;;;19.59;28.89
6096;BME280;25081;42.698;23.298;2023-03-07T10:51:28;94353.58;;;17.33;31.86
6096;BME280;25081;42.698;23.298;2023-03-07T10:53:37;94354.02;;;16.18;34.00
6096;BME280;25081;42.698;23.298;2023-03-07T10:55:48;94354.02;;;16.18;34.00
6096;BME280;25081;42.698;23.298;2023-03-07T10:58:12;94347.13;;;15.89;34.14
6096;BME280;25081;42.698;23.298;2023-03-07T11:00:24;94348.77;;;15.80;34.20
6096;BME280;25081;42.698;23.298;2023-03-07T11:02:36;94344.27;;;16.29;33.53
6096;BME280;25081;42.698;23.298;2023-03-07T11:04:46;94333.30;;;16.23;33.70
6096;BME280;25081;42.698;23.298;2023-03-07T11:06:57;94331.80;;;17.30;32.32
6096;BME280;25081;42.698;23.298;2023-03-07T11:09:24;94141.59;;;18.63;31.09
6096;BME280;25081;42.698;23.298;2023-03-07T11:11:30;94305.97;;;19.67;28.94
6096;BME280;25081;42.698;23.298;2023-03-07T11:13:38;94306.39;;;20.43;27.87
6096;BME280;25081;42.698;23.298;2023-03-07T11:15:48;94309.13;;;21.27;27.06
6096;BME280;25081;42.698;23.298;2023-03-07T11:17:59;94297.02;;;21.10;25.93
6096;BME280;25081;42.698;23.298;2023-03-07T11:20:19;94303.65;;;18.58;29.39
6096;BME280;25081;42.698;23.298;2023-03-07T11:22:29;94294.43;;;18.80;28.20
6096;BME280;25081;42.698;23.298;2023-03-07T11:24:39;94290.67;;;17.98;28.98
6096;BME280;25081;42.698;23.298;2023-03-07T11:26:50;94286.67;;;17.98;30.42
6096;BME280;25081;42.698;23.298;2023-03-07T11:29:06;94286.67;;;17.14;30.45
6096;BME280;25081;42.698;23.298;2023-03-07T11:31:19;94284.41;;;16.95;31.21
6096;BME280;25081;42.698;23.298;2023-03-07T11:33:30;94292.20;;;16.99;31.43
6096;BME280;25081;42.698;23.298;2023-03-07T11:35:51;94285.53;;;17.76;30.84
6096;BME280;25081;42.698;23.298;2023-03-07T11:38:04;94280.64;;;18.23;30.68
6096;BME280;25081;42.698;23.298;2023-03-07T11:40:22;94280.64;;;18.23;30.68
6096;BME280;25081;42.698;23.298;2023-03-07T11:42:34;94280.22;;;17.65;31.87
6096;BME280;25081;42.698;23.298;2023-03-07T11:44:46;94273.86;;;18.04;31.52
6096;BME280;25081;42.698;23.298;2023-03-07T11:47:03;94270.38;;;17.27;31.77
6096;BME280;25081;42.698;23.298;2023-03-07T11:49:28;94280.95;;;16.92;31.20